createdAt,value
2019-02-24T00:01:22.614Z,54.23
2019-02-24T00:03:51.094Z,54.33
2019-02-24T00:06:19.630Z,54.31
2019-02-24T00:08:48.126Z,54.34
2019-02-24T00:11:16.838Z,54.39
2019-02-24T00:13:45.392Z,54.43
2019-02-24T00:16:13.855Z,54.43
2019-02-24T00:18:42.417Z,54.42
2019-02-24T00:21:11.062Z,54.38
2019-02-24T00:23:39.702Z,54.44
2019-02-24T00:26:08.159Z,54.46
2019-02-24T00:28:36.667Z,54.50
2019-02-24T00:31:05.362Z,54.37
2019-02-24T00:33:36.564Z,54.45
2019-02-24T00:36:05.379Z,54.43
2019-02-24T00:38:33.836Z,54.34
2019-02-24T00:41:02.261Z,54.38
2019-02-24T00:43:30.754Z,54.34
2019-02-24T00:45:59.176Z,54.42
2019-02-24T00:48:27.641Z,54.45
2019-02-24T00:50:56.143Z,54.45
2019-02-24T00:53:24.596Z,54.46
2019-02-24T00:55:53.186Z,54.45
2019-02-24T00:58:21.723Z,54.45
2019-02-24T01:00:50.218Z,54.50
2019-02-24T01:03:18.731Z,54.52
2019-02-24T01:05:47.172Z,54.50
2019-02-24T01:08:15.696Z,54.61
2019-02-24T01:10:44.330Z,54.49
2019-02-24T01:13:12.780Z,54.49
2019-02-24T01:15:41.283Z,54.50
2019-02-24T01:18:09.723Z,54.46
2019-02-24T01:20:38.204Z,54.41
2019-02-24T01:23:06.768Z,54.34
2019-02-24T01:25:35.471Z,54.38
2019-02-24T01:28:03.930Z,54.44
2019-02-24T01:30:32.908Z,54.37
2019-02-24T01:33:01.528Z,54.33
2019-02-24T01:35:30.019Z,54.26
2019-02-24T01:37:58.635Z,54.22
2019-02-24T01:40:27.232Z,54.09
2019-02-24T01:42:55.647Z,54.04
2019-02-24T01:45:24.096Z,54.02
2019-02-24T01:47:52.609Z,53.91
2019-02-24T01:50:21.129Z,53.84
2019-02-24T01:52:49.571Z,53.83
2019-02-24T01:55:18.191Z,53.75
2019-02-24T01:57:46.720Z,53.74
2019-02-24T02:00:15.281Z,53.75
2019-02-24T02:02:43.773Z,53.69
2019-02-24T02:05:12.295Z,53.68
2019-02-24T02:07:40.720Z,53.72
2019-02-24T02:10:09.326Z,53.76
2019-02-24T02:12:37.745Z,53.75
2019-02-24T02:15:07.232Z,53.72
2019-02-24T02:17:35.811Z,53.79
2019-02-24T02:20:05.713Z,53.79
2019-02-24T02:22:34.525Z,53.77
2019-02-24T02:25:03.483Z,53.71
2019-02-24T02:27:31.971Z,53.75
2019-02-24T02:30:00.620Z,53.78
2019-02-24T02:32:29.176Z,53.75
2019-02-24T02:34:57.621Z,53.69
2019-02-24T02:37:26.321Z,53.63
2019-02-24T02:39:54.739Z,53.64
2019-02-24T02:42:23.256Z,53.58
2019-02-24T02:44:51.680Z,53.53
2019-02-24T02:47:20.599Z,53.54
2019-02-24T02:49:49.077Z,53.43
2019-02-24T02:52:17.609Z,53.41
2019-02-24T02:54:46.124Z,53.39
2019-02-24T02:57:14.581Z,53.37
2019-02-24T02:59:43.004Z,53.44
2019-02-24T03:02:11.583Z,53.41
2019-02-24T03:04:39.984Z,53.36
2019-02-24T03:07:28.095Z,53.34
2019-02-24T03:09:56.532Z,53.39
2019-02-24T03:12:24.995Z,53.43
2019-02-24T03:14:53.483Z,53.45
2019-02-24T03:17:21.949Z,53.39
2019-02-24T03:19:50.386Z,53.47
2019-02-24T03:22:18.905Z,53.46
2019-02-24T03:24:47.836Z,53.49
2019-02-24T03:27:16.424Z,53.59
2019-02-24T03:29:44.928Z,53.63
2019-02-24T03:32:13.505Z,53.63
2019-02-24T03:34:42.093Z,53.66
2019-02-24T03:37:10.606Z,53.77
2019-02-24T03:39:39.225Z,53.83
2019-02-24T03:42:07.634Z,53.76
2019-02-24T03:44:36.385Z,53.74
2019-02-24T03:47:04.804Z,53.67
2019-02-24T03:49:33.407Z,53.70
2019-02-24T03:52:01.880Z,53.73
2019-02-24T03:54:30.335Z,53.66
2019-02-24T03:56:58.845Z,53.54
2019-02-24T03:59:27.464Z,53.55
2019-02-24T04:01:56.039Z,53.53
2019-02-24T04:04:24.590Z,53.45
2019-02-24T04:06:53.227Z,53.45
2019-02-24T04:09:21.731Z,53.46
2019-02-24T04:11:50.233Z,53.29
2019-02-24T04:14:18.879Z,53.30
2019-02-24T04:16:47.511Z,53.22
2019-02-24T04:19:15.954Z,53.19
2019-02-24T04:21:44.382Z,53.13
2019-02-24T04:24:13.252Z,53.28
2019-02-24T04:26:41.675Z,53.02
2019-02-24T04:29:10.249Z,52.97
2019-02-24T04:31:38.673Z,52.93
2019-02-24T04:34:07.124Z,52.85
2019-02-24T04:36:35.544Z,52.76
2019-02-24T04:39:04.783Z,52.85
2019-02-24T04:41:33.282Z,52.74
2019-02-24T04:44:01.736Z,52.73
2019-02-24T04:46:30.295Z,52.65
2019-02-24T04:48:58.712Z,52.61
2019-02-24T04:51:27.263Z,52.48
2019-02-24T04:53:55.735Z,52.44
2019-02-24T04:56:24.193Z,52.38
2019-02-24T04:58:52.619Z,52.41
2019-02-24T05:01:21.127Z,52.30
2019-02-24T05:03:49.617Z,52.21
2019-02-24T05:06:18.059Z,52.17
2019-02-24T05:08:46.475Z,52.17
2019-02-24T05:11:14.939Z,52.13
2019-02-24T05:13:43.386Z,52.26
2019-02-24T05:16:12.003Z,52.27
2019-02-24T05:18:40.424Z,52.24
2019-02-24T05:21:08.929Z,52.29
2019-02-24T05:23:37.374Z,52.24
2019-02-24T05:26:05.817Z,52.22
2019-02-24T05:28:34.436Z,52.42
2019-02-24T05:31:03.051Z,52.51
2019-02-24T05:33:31.733Z,52.45
2019-02-24T05:36:00.170Z,52.51
2019-02-24T05:38:28.682Z,52.57
2019-02-24T05:40:57.153Z,52.53
2019-02-24T05:43:25.672Z,52.57
2019-02-24T05:45:54.230Z,52.56
2019-02-24T05:48:22.750Z,52.60
2019-02-24T05:50:51.530Z,52.67
2019-02-24T05:53:20.079Z,52.68
2019-02-24T05:55:48.710Z,52.74
2019-02-24T05:58:17.171Z,52.77
2019-02-24T06:00:45.744Z,52.74
2019-02-24T06:03:14.348Z,52.83
2019-02-24T06:05:42.848Z,52.83
2019-02-24T06:08:11.576Z,52.82
2019-02-24T06:10:40.017Z,52.82
2019-02-24T06:13:08.507Z,52.82
2019-02-24T06:15:36.955Z,52.81
2019-02-24T06:18:05.535Z,52.76
2019-02-24T06:20:33.991Z,52.86
2019-02-24T06:23:02.400Z,52.88
2019-02-24T06:25:30.923Z,52.83
2019-02-24T06:27:59.356Z,52.81
2019-02-24T06:30:27.897Z,52.84
2019-02-24T06:32:56.347Z,52.88
2019-02-24T06:35:25.047Z,52.84
2019-02-24T06:37:53.521Z,52.80
2019-02-24T06:40:22.044Z,52.80
2019-02-24T06:42:50.625Z,52.74
2019-02-24T06:45:19.135Z,52.79
2019-02-24T06:47:47.714Z,52.80
2019-02-24T06:50:16.297Z,52.81
2019-02-24T06:52:44.724Z,52.92
2019-02-24T06:55:13.350Z,52.97
2019-02-24T06:57:41.767Z,52.94
2019-02-24T07:00:14.275Z,52.96
2019-02-24T07:02:41.517Z,52.92
2019-02-24T07:05:10.080Z,52.99
2019-02-24T07:07:38.694Z,53.00
2019-02-24T07:10:07.926Z,53.02
2019-02-24T07:12:36.460Z,53.00
2019-02-24T07:15:07.666Z,53.00
2019-02-24T07:17:36.241Z,53.01
2019-02-24T07:20:06.303Z,52.95
2019-02-24T07:22:34.831Z,52.86
2019-02-24T07:25:03.497Z,53.11
2019-02-24T07:27:31.965Z,53.15
2019-02-24T07:30:00.417Z,54.63
2019-02-24T07:32:28.907Z,55.03
2019-02-24T07:34:57.331Z,54.67
2019-02-24T07:37:25.823Z,53.82
2019-02-24T07:39:54.243Z,53.17
2019-02-24T07:42:22.693Z,53.24
2019-02-24T07:44:51.127Z,53.30
2019-02-24T07:47:19.585Z,52.97
2019-02-24T07:49:48.068Z,52.77
2019-02-24T07:52:17.909Z,52.61
2019-02-24T07:54:46.352Z,52.32
2019-02-24T07:57:14.874Z,52.15
2019-02-24T07:59:43.296Z,52.06
2019-02-24T08:02:11.921Z,51.55
2019-02-24T08:04:41.216Z,51.35
2019-02-24T08:07:09.861Z,51.08
2019-02-24T08:09:40.150Z,51.26
2019-02-24T08:12:08.654Z,51.18
2019-02-24T08:14:37.130Z,51.04
2019-02-24T08:17:05.801Z,51.15
2019-02-24T08:19:34.273Z,50.99
2019-02-24T08:22:03.386Z,51.02
2019-02-24T08:24:33.518Z,51.17
2019-02-24T08:27:02.159Z,51.10
2019-02-24T08:29:30.690Z,51.22
2019-02-24T08:31:59.118Z,51.22
2019-02-24T08:34:27.586Z,51.23
2019-02-24T08:36:56.117Z,51.11
2019-02-24T08:39:24.557Z,50.98
2019-02-24T08:41:52.993Z,50.60
2019-02-24T08:44:22.305Z,50.67
2019-02-24T08:46:50.876Z,50.49
2019-02-24T08:49:19.421Z,50.16
2019-02-24T08:51:48.023Z,50.15
2019-02-24T08:54:16.555Z,49.96
2019-02-24T08:56:45.109Z,50.02
2019-02-24T08:59:13.652Z,49.89
2019-02-24T09:01:42.166Z,50.07
2019-02-24T09:04:10.732Z,49.99
2019-02-24T09:06:39.276Z,50.00
2019-02-24T09:09:08.047Z,49.99
2019-02-24T09:11:36.847Z,49.84
2019-02-24T09:14:05.410Z,50.02
2019-02-24T09:16:33.925Z,49.73
2019-02-24T09:19:02.403Z,49.56
2019-02-24T09:21:30.843Z,49.32
2019-02-24T09:23:59.340Z,49.16
2019-02-24T09:26:27.799Z,49.00
2019-02-24T09:28:56.232Z,48.48
2019-02-24T09:31:24.768Z,48.60
2019-02-24T09:33:53.272Z,48.43
2019-02-24T09:36:21.810Z,48.34
2019-02-24T09:38:50.483Z,48.32
2019-02-24T09:41:19.184Z,48.35
2019-02-24T09:43:47.666Z,47.94
2019-02-24T09:46:16.212Z,47.60
2019-02-24T09:48:44.927Z,47.43
2019-02-24T09:51:13.435Z,47.22
2019-02-24T09:53:42.061Z,46.76
2019-02-24T09:56:10.516Z,46.78
2019-02-24T09:58:39.079Z,46.19
2019-02-24T10:01:10.761Z,46.31
2019-02-24T10:03:37.961Z,45.88
2019-02-24T10:06:06.462Z,45.52
2019-02-24T10:08:35.100Z,44.44
2019-02-24T10:11:03.931Z,44.37
2019-02-24T10:13:32.525Z,44.14
2019-02-24T10:16:00.973Z,43.57
2019-02-24T10:18:29.528Z,43.19
2019-02-24T10:20:58.016Z,42.85
2019-02-24T10:23:27.197Z,42.91
2019-02-24T10:25:55.682Z,42.35
2019-02-24T10:28:24.134Z,42.27
2019-02-24T10:30:52.648Z,41.51
2019-02-24T10:33:21.355Z,41.43
2019-02-24T10:35:49.834Z,40.44
2019-02-24T10:38:18.434Z,40.85
2019-02-24T10:40:46.855Z,40.79
2019-02-24T10:43:15.466Z,40.91
2019-02-24T10:45:44.035Z,40.91
2019-02-24T10:48:14.225Z,40.87
2019-02-24T10:50:43.120Z,40.77
2019-02-24T10:53:11.707Z,40.79
2019-02-24T10:55:40.177Z,41.08
2019-02-24T10:58:08.623Z,40.22
2019-02-24T11:00:37.288Z,39.25
2019-02-24T11:03:05.752Z,39.02
2019-02-24T11:05:34.385Z,38.70
2019-02-24T11:08:02.955Z,38.90
2019-02-24T11:10:31.754Z,38.71
2019-02-24T11:13:00.176Z,38.61
2019-02-24T11:15:28.826Z,38.10
2019-02-24T11:17:57.359Z,37.31
2019-02-24T11:20:26.222Z,37.82
2019-02-24T11:22:54.721Z,38.04
2019-02-24T11:25:24.690Z,38.23
2019-02-24T11:27:53.246Z,37.87
2019-02-24T11:30:21.746Z,37.59
2019-02-24T11:32:50.481Z,37.41
2019-02-24T11:35:19.118Z,37.44
2019-02-24T11:37:47.614Z,37.15
2019-02-24T11:40:17.590Z,37.06
2019-02-24T11:42:46.046Z,36.59
2019-02-24T11:45:14.703Z,36.12
2019-02-24T11:47:43.238Z,35.08
2019-02-24T11:50:12.630Z,34.85
2019-02-24T11:52:41.140Z,33.88
2019-02-24T11:55:10.535Z,34.14
2019-02-24T11:57:39.290Z,33.81
2019-02-24T12:00:15.506Z,33.13
2019-02-24T12:02:44.136Z,32.97
2019-02-24T12:05:12.812Z,32.97
2019-02-24T12:07:41.323Z,33.17
2019-02-24T12:10:11.086Z,33.21
2019-02-24T12:12:39.642Z,32.43
2019-02-24T12:15:10.712Z,31.96
2019-02-24T12:17:39.278Z,31.68
2019-02-24T12:20:12.553Z,31.16
2019-02-24T12:22:41.122Z,31.04
2019-02-24T12:25:10.853Z,31.18
2019-02-24T12:27:39.309Z,31.19
2019-02-24T12:30:12.556Z,31.19
2019-02-24T12:32:41.213Z,30.95
2019-02-24T12:35:09.870Z,30.60
2019-02-24T12:37:38.383Z,30.58
2019-02-24T12:40:12.168Z,30.37
2019-02-24T12:42:40.677Z,30.03
2019-02-24T12:45:10.586Z,30.37
2019-02-24T12:47:39.252Z,29.84
2019-02-24T12:50:13.410Z,29.45
2019-02-24T12:52:42.034Z,28.71
2019-02-24T12:55:10.745Z,29.21
2019-02-24T12:57:39.697Z,29.13
2019-02-24T13:00:13.014Z,29.12
2019-02-24T13:02:41.525Z,28.93
2019-02-24T13:05:10.308Z,28.50
2019-02-24T13:07:38.768Z,27.76
2019-02-24T13:10:10.405Z,27.96
2019-02-24T13:12:38.841Z,28.14
2019-02-24T13:15:07.603Z,27.71
2019-02-24T13:17:36.165Z,27.30
2019-02-24T13:20:07.015Z,27.12
2019-02-24T13:22:35.519Z,26.70
2019-02-24T13:25:04.798Z,26.30
2019-02-24T13:27:33.358Z,26.45
2019-02-24T13:30:01.865Z,26.86
2019-02-24T13:32:30.386Z,26.09
2019-02-24T13:34:58.873Z,25.61
2019-02-24T13:37:27.414Z,26.48
2019-02-24T13:39:55.899Z,26.08
2019-02-24T13:42:24.449Z,26.10
2019-02-24T13:44:53.124Z,24.81
2019-02-24T13:47:21.690Z,24.48
2019-02-24T13:49:50.130Z,24.35
2019-02-24T13:52:18.810Z,23.95
2019-02-24T13:54:47.245Z,23.99
2019-02-24T13:57:15.780Z,24.07
2019-02-24T13:59:44.202Z,24.38
2019-02-24T14:02:13.173Z,23.65
2019-02-24T14:04:41.625Z,23.25
2019-02-24T14:07:10.153Z,23.22
2019-02-24T14:09:38.621Z,22.92
2019-02-24T14:12:07.097Z,22.76
2019-02-24T14:14:35.529Z,21.88
2019-02-24T14:17:04.109Z,22.30
2019-02-24T14:19:32.540Z,22.05
2019-02-24T14:22:00.992Z,22.05
2019-02-24T14:24:29.490Z,22.11
2019-02-24T14:26:58.024Z,21.25
2019-02-24T14:29:26.521Z,19.56
2019-02-24T14:31:55.128Z,19.33
2019-02-24T14:34:23.566Z,19.42
2019-02-24T14:36:51.984Z,19.82
2019-02-24T14:39:22.151Z,20.27
2019-02-24T14:41:50.723Z,20.63
2019-02-24T14:44:19.274Z,21.24
2019-02-24T14:46:47.739Z,21.41
2019-02-24T14:49:16.284Z,21.88
2019-02-24T14:51:44.725Z,22.21
2019-02-24T14:54:13.251Z,22.55
2019-02-24T14:56:41.888Z,23.11
2019-02-24T14:59:10.422Z,23.14
2019-02-24T15:01:39.006Z,23.74
2019-02-24T15:04:07.747Z,23.49
2019-02-24T15:06:36.407Z,23.52
2019-02-24T15:09:06.399Z,23.59
2019-02-24T15:11:34.906Z,23.46
2019-02-24T15:14:03.593Z,23.92
2019-02-24T15:16:32.105Z,23.50
2019-02-24T15:19:00.664Z,24.20
2019-02-24T15:21:29.106Z,23.92
2019-02-24T15:23:57.687Z,23.45
2019-02-24T15:26:26.187Z,23.57
2019-02-24T15:28:54.680Z,23.51
2019-02-24T15:31:23.102Z,24.00
2019-02-24T15:33:51.547Z,23.88
2019-02-24T15:36:21.724Z,24.24
2019-02-24T15:38:50.272Z,24.43
2019-02-24T15:41:20.939Z,24.35
2019-02-24T15:43:48.980Z,24.13
2019-02-24T15:46:17.553Z,24.27
2019-02-24T15:48:46.070Z,24.61
2019-02-24T15:51:14.583Z,24.23
2019-02-24T15:53:43.112Z,24.14
2019-02-24T15:56:11.720Z,24.10
2019-02-24T15:58:40.431Z,24.91
2019-02-24T16:01:09.214Z,25.51
2019-02-24T16:03:37.628Z,24.99
2019-02-24T16:06:06.424Z,24.99
2019-02-24T16:08:34.855Z,25.09
2019-02-24T16:11:03.430Z,25.34
2019-02-24T16:13:31.931Z,24.97
2019-02-24T16:16:00.565Z,25.10
2019-02-24T16:18:29.006Z,25.35
2019-02-24T16:20:57.597Z,25.23
2019-02-24T16:23:26.182Z,25.41
2019-02-24T16:25:54.675Z,25.88
2019-02-24T16:28:23.305Z,25.56
2019-02-24T16:30:51.806Z,25.18
2019-02-24T16:33:20.338Z,25.52
2019-02-24T16:35:48.758Z,25.29
2019-02-24T16:38:17.334Z,25.68
2019-02-24T16:40:47.311Z,25.95
2019-02-24T16:43:15.855Z,26.24
2019-02-24T16:45:44.363Z,26.65
2019-02-24T16:48:12.831Z,27.06
2019-02-24T16:50:41.319Z,27.40
2019-02-24T16:53:10.242Z,27.29
2019-02-24T16:55:38.670Z,27.70
2019-02-24T16:58:07.252Z,27.54
2019-02-24T17:00:35.949Z,28.08
2019-02-24T17:03:04.750Z,28.37
2019-02-24T17:05:33.435Z,28.59
2019-02-24T17:08:01.890Z,28.59
2019-02-24T17:10:30.516Z,28.65
2019-02-24T17:12:59.045Z,28.88
2019-02-24T17:15:28.076Z,29.26
2019-02-24T17:17:56.627Z,29.65
2019-02-24T17:20:27.624Z,29.90
2019-02-24T17:22:56.137Z,30.20
2019-02-24T17:25:24.657Z,30.50
2019-02-24T17:27:53.179Z,30.65
2019-02-24T17:30:23.666Z,30.83
2019-02-24T17:32:52.091Z,31.16
2019-02-24T17:35:20.608Z,31.38
2019-02-24T17:37:49.209Z,31.58
2019-02-24T17:40:19.596Z,31.50
2019-02-24T17:42:48.308Z,31.99
2019-02-24T17:45:16.922Z,31.96
2019-02-24T17:47:45.584Z,32.00
2019-02-24T17:50:15.373Z,32.32
2019-02-24T17:52:43.940Z,32.54
2019-02-24T17:55:14.908Z,32.78
2019-02-24T17:57:43.335Z,32.73
2019-02-24T18:00:25.795Z,33.10
2019-02-24T18:02:54.570Z,33.13
2019-02-24T18:05:23.089Z,33.13
2019-02-24T18:07:51.582Z,33.48
2019-02-24T18:10:22.383Z,33.40
2019-02-24T18:12:50.922Z,33.54
2019-02-24T18:15:19.341Z,33.52
2019-02-24T18:17:47.956Z,33.49
2019-02-24T18:20:18.629Z,33.69
2019-02-24T18:22:47.205Z,33.85
2019-02-24T18:25:15.711Z,34.08
2019-02-24T18:27:44.266Z,34.19
2019-02-24T18:30:21.442Z,34.47
2019-02-24T18:32:50.044Z,34.46
2019-02-24T18:35:18.622Z,34.67
2019-02-24T18:37:47.105Z,34.77
2019-02-24T18:40:16.398Z,34.97
2019-02-24T18:42:44.956Z,35.29
2019-02-24T18:45:14.426Z,35.26
2019-02-24T18:47:43.066Z,35.30
2019-02-24T18:50:17.453Z,35.55
2019-02-24T18:52:46.667Z,35.54
2019-02-24T18:55:15.340Z,35.60
2019-02-24T18:57:44.370Z,35.70
2019-02-24T19:00:23.434Z,35.88
2019-02-24T19:02:52.270Z,35.96
2019-02-24T19:05:20.792Z,35.71
2019-02-24T19:07:49.336Z,35.79
2019-02-24T19:10:21.264Z,36.00
2019-02-24T19:12:49.942Z,35.83
2019-02-24T19:15:19.765Z,36.11
2019-02-24T19:17:48.560Z,36.29
2019-02-24T19:20:18.881Z,36.51
2019-02-24T19:22:47.533Z,36.29
2019-02-24T19:25:16.555Z,36.33
2019-02-24T19:27:45.152Z,36.28
2019-02-24T19:30:18.541Z,36.66
2019-02-24T19:32:47.126Z,36.43
2019-02-24T19:35:16.751Z,36.67
2019-02-24T19:37:45.288Z,36.46
2019-02-24T19:40:20.784Z,36.27
2019-02-24T19:42:49.533Z,36.27
2019-02-24T19:45:22.708Z,36.80
2019-02-24T19:47:51.484Z,36.59
2019-02-24T19:50:20.057Z,36.61
2019-02-24T19:52:48.637Z,36.61
2019-02-24T19:55:17.830Z,36.97
2019-02-24T19:57:46.528Z,37.08
2019-02-24T20:00:21.337Z,37.17
2019-02-24T20:02:49.885Z,36.85
2019-02-24T20:05:19.516Z,36.85
2019-02-24T20:07:48.416Z,37.25
2019-02-24T20:10:21.992Z,37.36
2019-02-24T20:12:50.430Z,37.09
2019-02-24T20:15:19.127Z,36.98
2019-02-24T20:17:47.740Z,36.83
2019-02-24T20:20:17.216Z,37.03
2019-02-24T20:22:45.786Z,37.16
2019-02-24T20:25:21.525Z,37.01
2019-02-24T20:27:50.090Z,37.01
2019-02-24T20:30:29.201Z,37.21
2019-02-24T20:32:57.839Z,37.08
2019-02-24T20:35:26.559Z,37.01
2019-02-24T20:37:55.064Z,37.13
2019-02-24T20:40:23.578Z,37.38
2019-02-24T20:42:52.177Z,37.35
2019-02-24T20:45:22.171Z,36.96
2019-02-24T20:47:50.815Z,36.96
2019-02-24T20:50:21.279Z,37.35
2019-02-24T20:52:50.106Z,37.64
2019-02-24T20:55:18.801Z,37.55
2019-02-24T20:57:47.402Z,37.59
2019-02-24T21:00:18.872Z,37.61
2019-02-24T21:02:47.439Z,37.63
2019-02-24T21:05:15.974Z,37.87
2019-02-24T21:07:44.532Z,37.95
2019-02-24T21:10:13.226Z,38.01
2019-02-24T21:12:41.761Z,38.71
2019-02-24T21:15:13.074Z,38.71
2019-02-24T21:17:41.651Z,38.46
2019-02-24T21:20:15.403Z,38.20
2019-02-24T21:22:43.958Z,38.41
2019-02-24T21:25:12.561Z,38.70
2019-02-24T21:27:41.208Z,38.64
2019-02-24T21:30:13.103Z,38.65
2019-02-24T21:32:41.815Z,38.75
2019-02-24T21:35:11.354Z,38.51
2019-02-24T21:37:39.895Z,38.04
2019-02-24T21:40:15.729Z,38.31
2019-02-24T21:42:44.291Z,38.30
2019-02-24T21:45:15.185Z,38.49
2019-02-24T21:47:43.792Z,38.38
2019-02-24T21:50:14.854Z,38.63
2019-02-24T21:52:43.379Z,39.09
2019-02-24T21:55:12.274Z,38.92
2019-02-24T21:57:40.775Z,38.56
2019-02-24T22:00:14.951Z,38.41
2019-02-24T22:02:43.449Z,38.55
2019-02-24T22:05:12.566Z,38.65
2019-02-24T22:07:41.144Z,38.97
2019-02-24T22:10:11.949Z,39.33
2019-02-24T22:12:40.501Z,39.52
2019-02-24T22:15:17.875Z,39.11
2019-02-24T22:17:46.460Z,38.90
2019-02-24T22:20:15.859Z,38.89
2019-02-24T22:22:44.829Z,39.32
2019-02-24T22:25:14.664Z,39.35
2019-02-24T22:27:43.298Z,39.21
2019-02-24T22:30:17.221Z,39.37
2019-02-24T22:32:45.900Z,39.64
2019-02-24T22:35:14.598Z,39.42
2019-02-24T22:37:43.096Z,39.43
2019-02-24T22:40:13.345Z,39.45
2019-02-24T22:42:41.876Z,39.41
2019-02-24T22:45:19.039Z,39.53
2019-02-24T22:47:47.793Z,39.35
2019-02-24T22:50:16.656Z,39.45
2019-02-24T22:52:46.200Z,39.39
2019-02-24T22:55:15.964Z,39.44
2019-02-24T22:57:44.702Z,39.67
2019-02-24T23:00:29.428Z,39.92
2019-02-24T23:02:58.166Z,40.09
2019-02-24T23:05:26.763Z,40.18
2019-02-24T23:07:55.766Z,40.43
2019-02-24T23:10:24.392Z,40.60
2019-02-24T23:12:52.973Z,40.68
2019-02-24T23:15:21.782Z,40.98
2019-02-24T23:17:50.313Z,41.09
2019-02-24T23:20:18.762Z,41.22
2019-02-24T23:22:47.284Z,41.37
2019-02-24T23:25:15.774Z,41.61
2019-02-24T23:27:44.246Z,41.65
2019-02-24T23:30:12.924Z,41.82
2019-02-24T23:32:41.446Z,41.98
2019-02-24T23:35:10.144Z,41.82
2019-02-24T23:37:38.758Z,42.01
2019-02-24T23:40:08.937Z,42.03
2019-02-24T23:42:37.384Z,42.03
2019-02-24T23:45:10.652Z,42.09
2019-02-24T23:47:38.718Z,42.37
2019-02-24T23:50:09.220Z,42.48
2019-02-24T23:52:37.836Z,42.44
2019-02-24T23:55:07.429Z,42.42
2019-02-24T23:57:35.924Z,42.44
